Time;durP1;ratioP1;P1;durP2;ratioP2;P2;SDS_P1;SDS_P2;PMS_P1;PMS_P2;Temp;Humidity;BMP_temperature;BMP_pressure;BME280_temperature;BME280_humidity;BME280_pressure;Samples;Min_cycle;Max_cycle;Signal;HPM_P1;HPM_P2
2023/02/21 02:23:00;;;;;;;1999.90;999.90;;;8.30;99.90;;;;;;6742443;88;20226;-78
2023/02/21 02:33:49;;;;;;;1999.90;999.90;;;8.20;99.90;;;;;;6743303;87;20817;-78
2023/02/21 02:43:55;;;;;;;1999.90;999.90;;;8.30;99.90;;;;;;6740115;88;20809;-76
2023/02/21 02:53:56;;;;;;;1999.90;999.90;;;8.40;99.90;;;;;;6745603;87;20243;-77
2023/02/21 03:04:07;;;;;;;1999.90;999.90;;;8.20;99.90;;;;;;6745985;88;20185;-77
2023/02/21 03:14:15;;;;;;;1999.90;999.90;;;8.10;99.90;;;;;;6745162;88;20497;-77
2023/02/21 03:24:17;;;;;;;1999.90;999.90;;;8.20;99.90;;;;;;6742613;87;20218;-76
2023/02/21 03:34:17;;;;;;;1999.90;999.90;;;8.20;99.90;;;;;;6740981;88;20184;-75
2023/02/21 03:44:18;;;;;;;1999.90;999.90;;;8.20;99.90;;;;;;6735333;88;20652;-76
2023/02/21 03:54:19;;;;;;;1999.90;999.90;;;8.30;99.90;;;;;;6742462;88;20200;-76
2023/02/21 04:04:19;;;;;;;1999.90;999.90;;;8.30;99.90;;;;;;6738994;88;20500;-76
2023/02/21 04:14:20;;;;;;;1999.90;999.90;;;8.30;99.90;;;;;;6735703;88;20904;-76
2023/02/21 04:24:20;;;;;;;1999.90;999.90;;;8.30;99.90;;;;;;6738601;88;20566;-76
2023/02/21 04:34:21;;;;;;;1999.90;999.90;;;8.30;99.90;;;;;;6736764;88;20503;-76
2023/02/21 04:44:22;;;;;;;1999.90;999.90;;;8.40;99.90;;;;;;6733890;88;20978;-75
2023/02/21 04:54:23;;;;;;;1999.90;999.90;;;8.20;99.90;;;;;;6736989;88;20231;-75
2023/02/21 05:04:23;;;;;;;1999.90;999.90;;;8.10;99.90;;;;;;6737916;88;20185;-76
2023/02/21 05:14:24;;;;;;;1999.90;999.90;;;8.00;99.90;;;;;;6735206;88;20709;-76
2023/02/21 05:24:25;;;;;;;1999.90;999.90;;;8.00;99.90;;;;;;6740119;88;20973;-76
2023/02/21 05:34:26;;;;;;;1999.90;999.90;;;7.80;99.90;;;;;;6737018;87;20189;-76
2023/02/21 05:44:26;;;;;;;1999.90;999.90;;;7.60;99.90;;;;;;6738311;88;20253;-76
2023/02/21 05:54:27;;;;;;;1999.90;999.90;;;7.30;99.90;;;;;;6739820;88;20219;-75
2023/02/21 06:04:27;;;;;;;1999.90;999.90;;;7.00;99.90;;;;;;6739246;88;20181;-75
2023/02/21 06:14:28;;;;;;;1999.90;999.90;;;6.90;99.90;;;;;;6738145;88;20329;-75
2023/02/21 06:24:28;;;;;;;1999.90;999.90;;;6.90;99.90;;;;;;6746161;88;20181;-76
2023/02/21 06:34:29;;;;;;;1999.90;999.90;;;7.10;99.90;;;;;;6745995;88;20229;-76
2023/02/21 06:44:29;;;;;;;1999.90;999.90;;;7.10;99.90;;;;;;6754082;88;20211;-76
2023/02/21 06:54:30;;;;;;;1999.90;999.90;;;7.10;99.90;;;;;;6765497;88;20220;-75
2023/02/21 07:04:30;;;;;;;1999.90;999.90;;;7.10;99.90;;;;;;6753693;88;20701;-75
2023/02/21 07:14:31;;;;;;;1999.90;999.90;;;7.00;99.90;;;;;;6719384;88;20214;-77
2023/02/21 07:24:32;;;;;;;1999.90;999.90;;;7.10;99.90;;;;;;6718614;88;20224;-77
2023/02/21 07:34:32;;;;;;;1999.90;999.90;;;7.30;99.90;;;;;;6719851;88;20238;-77
2023/02/21 07:44:33;;;;;;;1999.90;999.90;;;7.40;99.90;;;;;;6718733;88;20737;-77
2023/02/21 07:54:35;;;;;;;1999.90;999.90;;;7.50;99.90;;;;;;6720164;88;20743;-77
2023/02/21 08:04:35;;;;;;;1999.90;999.90;;;7.60;99.90;;;;;;6719769;88;20199;-77
2023/02/21 08:14:36;;;;;;;1999.90;999.90;;;7.80;99.90;;;;;;6720372;88;20181;-77
2023/02/21 08:24:36;;;;;;;1999.90;999.90;;;7.90;99.90;;;;;;6733001;88;20172;-78
2023/02/21 08:34:36;;;;;;;1999.90;999.90;;;8.10;99.90;;;;;;6738128;88;20335;-78
2023/02/21 08:44:37;;;;;;;1999.90;999.90;;;8.20;99.90;;;;;;6737847;88;20181;-77
2023/02/21 08:54:38;;;;;;;1999.90;999.90;;;8.40;99.90;;;;;;6736921;88;20210;-77
2023/02/21 09:04:39;;;;;;;1999.90;999.90;;;8.50;99.90;;;;;;6733715;88;20528;-78
2023/02/21 09:14:41;;;;;;;1999.90;999.90;;;9.10;99.90;;;;;;6737747;88;20203;-78
2023/02/21 09:24:41;;;;;;;1999.90;999.90;;;9.70;99.90;;;;;;6739561;88;20701;-78
2023/02/21 09:34:42;;;;;;;1999.90;999.90;;;10.50;99.90;;;;;;6751384;87;20189;-78
2023/02/21 09:44:44;;;;;;;1999.90;999.90;;;11.60;99.90;;;;;;6741232;88;20281;-78
2023/02/21 09:54:50;;;;;;;1999.90;999.90;;;13.20;99.90;;;;;;6741271;87;20339;-78
2023/02/21 10:05:16;;;;;;;1999.90;999.90;;;14.40;99.90;;;;;;6741122;88;20270;-78
2023/02/21 10:15:38;;;;;;;1999.90;999.90;;;14.50;99.90;;;;;;6747609;88;20242;-79
2023/02/21 10:25:44;;;;;;;1999.90;999.90;;;15.50;99.90;;;;;;6736589;88;20703;-79
2023/02/21 10:35:45;;;;;;;1999.90;999.90;;;16.00;99.90;;;;;;6734236;87;20331;-78
2023/02/21 10:46:12;;;;;;;1999.90;999.90;;;16.90;99.90;;;;;;6744219;88;20221;-77
2023/02/21 10:56:18;;;;;;;1999.90;999.90;;;17.20;99.90;;;;;;6732921;88;20246;-77
2023/02/21 11:06:26;;;;;;;1999.90;999.90;;;17.80;99.90;;;;;;6743915;88;20625;-78
2023/02/21 11:16:26;;;;;;;1999.90;999.90;;;17.80;99.90;;;;;;6749369;87;20210;-78
2023/02/21 11:26:46;;;;;;;1999.90;999.90;;;18.40;99.90;;;;;;6748464;88;20200;-78
2023/02/21 11:36:48;;;;;;;1999.90;999.90;;;17.10;99.90;;;;;;6750993;88;20189;-78
2023/02/21 11:46:56;;;;;;;1999.90;999.90;;;19.10;99.90;;;;;;6741754;88;20204;-78
2023/02/21 11:57:06;;;;;;;1999.90;999.90;;;20.60;99.90;;;;;;6752115;88;20236;-78
2023/02/21 12:07:38;;;;;;;1999.90;999.90;;;20.50;99.90;;;;;;6742578;88;20707;-77
2023/02/21 12:17:41;;;;;;;1999.90;999.90;;;20.90;99.90;;;;;;6744027;88;20241;-78
2023/02/21 12:27:57;;;;;;;1999.90;999.90;;;21.50;99.60;;;;;;6744338;88;20229;-78
2023/02/21 12:38:06;;;;;;;1999.90;999.90;;;21.70;99.40;;;;;;6741131;87;20277;-78
2023/02/21 12:48:26;;;;;;;1999.90;999.90;;;21.60;98.80;;;;;;6741052;88;20749;-78
2023/02/21 12:58:39;;;;;;;1999.90;999.90;;;22.20;98.30;;;;;;6740264;88;20184;-78
2023/02/21 13:09:05;;;;;;;1999.90;999.90;;;24.40;96.50;;;;;;6745202;88;20178;-76
2023/02/21 13:19:10;;;;;;;1999.90;999.90;;;25.20;95.70;;;;;;6743722;88;20280;-78
2023/02/21 13:29:21;;;;;;;1999.90;999.90;;;26.50;94.20;;;;;;6742621;88;20182;-79
2023/02/21 13:39:30;;;;;;;1999.90;999.90;;;25.60;94.80;;;;;;6747169;88;20204;-78
2023/02/21 13:49:53;;;;;;;1999.90;999.90;;;25.30;94.70;;;;;;6745725;88;20195;-78
2023/02/21 13:59:53;;;;;;;1999.90;999.90;;;25.50;94.50;;;;;;6730994;88;20721;-79
2023/02/21 14:09:54;;;;;;;1999.90;999.90;;;24.70;94.70;;;;;;6749383;88;20200;-80
2023/02/21 14:19:58;;;;;;;1999.90;999.90;;;24.60;95.00;;;;;;6743106;88;20181;-79
2023/02/21 14:30:24;;;;;;;1999.90;999.90;;;25.30;94.40;;;;;;6743406;88;20310;-79
2023/02/21 14:41:02;;;;;;;1999.90;999.90;;;23.10;96.10;;;;;;6739585;87;20210;-79
2023/02/21 14:51:40;;;;;;;1999.90;999.90;;;21.80;97.90;;;;;;6738098;88;20222;-78
2023/02/21 15:01:57;;;;;;;1999.90;999.90;;;21.30;98.10;;;;;;6742922;88;20263;-78
2023/02/21 15:11:58;;;;;;;1999.90;999.90;;;20.30;99.20;;;;;;6739348;88;20245;-79
2023/02/21 15:22:20;;;;;;;1999.90;999.90;;;19.70;99.90;;;;;;6742969;88;20215;-79
2023/02/21 15:32:21;;;;;;;1999.90;999.90;;;19.20;99.90;;;;;;6751200;88;20617;-79
2023/02/21 15:42:23;;;;;;;1999.90;999.90;;;19.40;99.90;;;;;;6761597;88;20241;-79
2023/02/21 15:52:36;;;;;;;1999.90;999.90;;;18.70;99.90;;;;;;6752936;87;20240;-79
2023/02/21 16:02:37;;;;;;;1999.90;999.90;;;17.90;99.90;;;;;;6753576;88;20565;-78
2023/02/21 16:12:43;;;;;;;1999.90;999.90;;;17.50;99.90;;;;;;6745026;88;20189;-79
2023/02/21 16:22:47;;;;;;;1999.90;999.90;;;16.90;99.90;;;;;;6743687;88;20226;-79
2023/02/21 16:32:53;;;;;;;1999.90;999.90;;;16.10;99.90;;;;;;6743346;88;20708;-78
2023/02/21 16:42:55;;;;;;;1999.90;999.90;;;15.10;99.90;;;;;;6747086;88;20268;-78
2023/02/21 16:52:56;;;;;;;1999.90;999.90;;;14.30;99.90;;;;;;6752741;88;20182;-78
2023/02/21 17:02:57;;;;;;;1999.90;999.90;;;13.60;99.90;;;;;;6743973;88;20199;-80
2023/02/21 17:12:59;;;;;;;1999.90;999.90;;;13.20;99.90;;;;;;6743146;88;20189;-79
2023/02/21 17:23:01;;;;;;;1999.90;999.90;;;12.70;99.90;;;;;;6744597;88;20324;-78
2023/02/21 17:33:01;;;;;;;1999.90;999.90;;;12.30;99.90;;;;;;6744637;88;20201;-79
2023/02/21 17:43:06;;;;;;;1999.90;999.90;;;11.70;99.90;;;;;;6758187;88;20809;-78
2023/02/21 17:53:07;;;;;;;1999.90;999.90;;;11.40;99.90;;;;;;6750163;87;20847;-78
2023/02/21 18:03:08;;;;;;;1999.90;999.90;;;11.00;99.90;;;;;;6741011;88;20650;-77
2023/02/21 18:13:08;;;;;;;1999.90;999.90;;;10.60;99.90;;;;;;6741897;88;20236;-77
2023/02/21 18:23:09;;;;;;;1999.90;999.90;;;10.40;99.90;;;;;;6740434;88;20173;-78
2023/02/21 18:33:30;;;;;;;1999.90;999.90;;;10.20;99.90;;;;;;6757629;77;20189;-79
2023/02/21 18:43:31;;;;;;;1999.90;999.90;;;9.80;99.90;;;;;;6754372;88;20631;-79
2023/02/21 18:53:31;;;;;;;1999.90;999.90;;;9.60;99.90;;;;;;6753842;88;20227;-78
2023/02/21 19:03:32;;;;;;;1999.90;999.90;;;9.40;99.90;;;;;;6754537;88;20189;-80
2023/02/21 19:13:33;;;;;;;1999.90;999.90;;;9.20;99.90;;;;;;6752323;88;20249;-79
2023/02/21 19:23:33;;;;;;;1999.90;999.90;;;9.00;99.90;;;;;;6750790;88;20304;-79
2023/02/21 19:33:34;;;;;;;1999.90;999.90;;;8.90;99.90;;;;;;6747113;87;20698;-80
2023/02/21 19:43:35;;;;;;;1999.90;999.90;;;8.70;99.90;;;;;;6748957;88;20173;-79
2023/02/21 19:53:35;;;;;;;1999.90;999.90;;;8.60;99.90;;;;;;6752010;88;20193;-80
2023/02/21 20:03:36;;;;;;;1999.90;999.90;;;8.40;99.90;;;;;;6752736;88;20230;-78
2023/02/21 20:13:37;;;;;;;1999.90;999.90;;;8.20;99.90;;;;;;6749129;88;20165;-79
2023/02/21 20:23:38;;;;;;;1999.90;999.90;;;8.10;99.90;;;;;;6744331;88;20220;-78
2023/02/21 20:33:39;;;;;;;1999.90;999.90;;;8.10;99.90;;;;;;6746391;87;20370;-78
2023/02/21 20:43:40;;;;;;;1999.90;999.90;;;7.90;99.90;;;;;;6748290;88;20375;-79
2023/02/21 20:53:42;;;;;;;1999.90;999.90;;;7.90;99.90;;;;;;6751472;88;20177;-78
2023/02/21 21:03:42;;;;;;;1999.90;999.90;;;7.80;99.90;;;;;;6749725;88;20624;-78
2023/02/21 21:13:46;;;;;;;1999.90;999.90;;;7.70;99.90;;;;;;6751644;88;20189;-78
2023/02/21 21:23:47;;;;;;;1999.90;999.90;;;7.50;99.90;;;;;;6751542;88;20210;-79
2023/02/21 21:33:48;;;;;;;1999.90;999.90;;;7.50;99.90;;;;;;6748273;88;20185;-78
2023/02/21 21:43:48;;;;;;;1999.90;999.90;;;7.30;99.90;;;;;;6746767;88;20237;-79
2023/02/21 21:53:49;;;;;;;1999.90;999.90;;;7.30;99.90;;;;;;6743111;88;20268;-77
2023/02/21 22:03:50;;;;;;;1999.90;999.90;;;6.90;99.90;;;;;;6733049;88;20334;-78
2023/02/21 22:13:50;;;;;;;1999.90;999.90;;;6.80;99.90;;;;;;6740086;88;20185;-77
2023/02/21 22:23:51;;;;;;;1999.90;999.90;;;6.70;99.90;;;;;;6732381;88;20182;-78
2023/02/21 22:33:52;;;;;;;1999.90;999.90;;;6.60;99.90;;;;;;6740472;87;20335;-77
2023/02/21 22:43:54;;;;;;;1999.90;999.90;;;6.40;99.90;;;;;;6744957;88;20882;-77
2023/02/21 22:53:57;;;;;;;1999.90;999.90;;;6.50;99.90;;;;;;6735878;88;20211;-77
2023/02/21 23:04:09;;;;;;;1999.90;999.90;;;6.20;99.90;;;;;;6743140;88;20180;-78
2023/02/21 23:14:12;;;;;;;1999.90;999.90;;;6.30;99.90;;;;;;6743240;88;20187;-77
2023/02/21 23:24:14;;;;;;;1999.90;999.90;;;6.10;99.90;;;;;;6736589;88;20248;-78
2023/02/21 23:34:16;;;;;;;1999.90;999.90;;;6.10;99.90;;;;;;6737646;88;20662;-77
2023/02/21 23:44:16;;;;;;;1999.90;999.90;;;5.90;99.90;;;;;;6743800;88;20206;-76
2023/02/21 23:54:19;;;;;;;1999.90;999.90;;;5.80;99.90;;;;;;6742069;88;20614;-77
